createdAt,value
2023-02-16T00:04:10.106Z,-1.4
2023-02-16T00:09:10.101Z,-1.3
2023-02-16T00:14:10.083Z,-1.2
2023-02-16T00:19:10.062Z,-1.1
2023-02-16T00:24:10.045Z,-1.1
2023-02-16T00:29:10.032Z,-1.1
2023-02-16T00:34:10.012Z,-1
2023-02-16T00:39:10.074Z,-0.9
2023-02-16T00:44:09.980Z,-0.8
2023-02-16T00:49:09.976Z,-0.8
2023-02-16T00:54:09.995Z,-0.6
2023-02-16T00:59:09.945Z,-0.6
2023-02-16T01:04:09.950Z,-0.5
2023-02-16T01:09:09.915Z,-0.1
2023-02-16T01:14:09.900Z,0
2023-02-16T01:19:09.919Z,0.1
2023-02-16T01:24:09.862Z,0.1
2023-02-16T01:29:09.846Z,0.2
2023-02-16T01:34:09.829Z,0.1
2023-02-16T01:39:09.942Z,0.1
2023-02-16T01:44:09.801Z,0
2023-02-16T01:49:09.849Z,-0.2
2023-02-16T01:54:09.780Z,-0.3
2023-02-16T01:59:09.751Z,-0.4
2023-02-16T02:04:09.738Z,-0.3
2023-02-16T02:09:09.791Z,-0.3
2023-02-16T02:14:09.704Z,-0.4
2023-02-16T02:19:09.698Z,-0.5
2023-02-16T02:24:09.669Z,-0.6
2023-02-16T02:29:09.708Z,-0.6
2023-02-16T02:34:09.638Z,-0.6
2023-02-16T02:39:09.631Z,-0.5
2023-02-16T02:44:09.616Z,-0.6
2023-02-16T02:49:09.606Z,-0.6
2023-02-16T02:54:09.593Z,-0.4
2023-02-16T02:59:09.561Z,-0.4
2023-02-16T03:04:09.547Z,-0.5
2023-02-16T03:09:09.534Z,-0.6
2023-02-16T03:14:09.524Z,-0.4
2023-02-16T03:19:09.503Z,-0.2
2023-02-16T03:24:09.489Z,0
2023-02-16T03:29:09.459Z,0
2023-02-16T03:34:09.477Z,0
2023-02-16T03:39:09.430Z,0
2023-02-16T03:44:09.414Z,0.1
2023-02-16T03:49:09.431Z,0.3
2023-02-16T03:54:09.385Z,0.3
2023-02-16T03:59:09.378Z,0.4
2023-02-16T04:04:09.370Z,0.4
2023-02-16T04:09:09.390Z,0.4
2023-02-16T04:14:09.344Z,0.4
2023-02-16T04:19:09.309Z,0.4
2023-02-16T04:24:09.290Z,0.4
2023-02-16T04:29:09.277Z,0.5
2023-02-16T04:34:09.259Z,0.5
2023-02-16T04:39:09.266Z,0.5
2023-02-16T04:44:09.218Z,0.5
2023-02-16T04:49:09.209Z,0.6
2023-02-16T04:54:09.193Z,0.6
2023-02-16T04:59:09.176Z,0.6
2023-02-16T05:04:09.158Z,0.5
2023-02-16T05:09:09.150Z,0.5
2023-02-16T05:14:09.132Z,0.5
2023-02-16T05:19:09.115Z,0.5
2023-02-16T05:24:09.094Z,0.5
2023-02-16T05:29:09.085Z,0.5
2023-02-16T05:34:09.063Z,0.5
2023-02-16T05:39:09.049Z,0.6
2023-02-16T05:44:09.039Z,0.5
2023-02-16T05:49:09.025Z,0.5
2023-02-16T05:54:08.998Z,0.5
2023-02-16T05:59:08.990Z,0.5
2023-02-16T06:04:08.966Z,0.5
2023-02-16T06:09:08.965Z,0.5
2023-02-16T06:14:08.938Z,0.5
2023-02-16T06:19:08.926Z,0.6
2023-02-16T06:24:08.907Z,0.6
2023-02-16T06:29:08.895Z,0.6
2023-02-16T06:34:08.917Z,0.6
2023-02-16T06:39:08.928Z,0.6
2023-02-16T06:44:08.905Z,0.7
2023-02-16T06:49:08.886Z,0.7
2023-02-16T06:54:08.879Z,0.7
2023-02-16T06:59:08.891Z,0.7
2023-02-16T07:04:08.800Z,0.7
2023-02-16T07:09:08.835Z,0.8
2023-02-16T07:14:08.759Z,0.8
2023-02-16T07:19:08.831Z,0.8
2023-02-16T07:24:08.818Z,0.8
2023-02-16T07:29:08.787Z,0.8
2023-02-16T07:34:08.722Z,0.8
2023-02-16T07:39:08.671Z,0.9
2023-02-16T07:44:08.704Z,0.9
2023-02-16T07:49:08.651Z,1
2023-02-16T07:54:08.673Z,1.1
2023-02-16T07:59:08.630Z,1.2
2023-02-16T08:04:08.664Z,1.3
2023-02-16T08:09:08.655Z,1.5
2023-02-16T08:14:08.636Z,1.7
2023-02-16T08:19:08.565Z,1.9
2023-02-16T08:24:08.588Z,2.2
2023-02-16T08:29:08.575Z,2.4
2023-02-16T08:34:08.479Z,2.7
2023-02-16T08:39:08.587Z,2.9
2023-02-16T08:44:08.447Z,3.2
2023-02-16T08:49:08.428Z,3.6
2023-02-16T08:54:08.416Z,4.1
2023-02-16T08:59:08.384Z,4.5
2023-02-16T09:04:08.374Z,5
2023-02-16T09:09:08.373Z,5.9
2023-02-16T09:14:08.329Z,7.4
2023-02-16T09:19:08.316Z,8.8
2023-02-16T09:24:08.294Z,9.9
2023-02-16T09:29:08.630Z,10.9
2023-02-16T09:34:08.253Z,11.9
2023-02-16T09:39:08.253Z,12.7
2023-02-16T09:44:08.229Z,13.1
2023-02-16T09:49:08.270Z,13.8
2023-02-16T09:54:08.163Z,14.1
2023-02-16T09:59:08.293Z,14.9
2023-02-16T10:04:08.223Z,15.2
2023-02-16T10:09:08.116Z,15.9
2023-02-16T10:14:08.096Z,16
2023-02-16T10:19:08.086Z,16.4
2023-02-16T10:24:08.033Z,16.1
2023-02-16T10:29:08.017Z,15.8
2023-02-16T10:34:08.046Z,15.4
2023-02-16T10:39:08.081Z,15.1
2023-02-16T10:44:07.959Z,14.8
2023-02-16T10:49:07.957Z,15.2
2023-02-16T10:54:07.927Z,15.8
2023-02-16T10:59:07.919Z,16
2023-02-16T11:04:07.887Z,16.4
2023-02-16T11:09:07.849Z,16.7
2023-02-16T11:14:07.931Z,17
2023-02-16T11:19:07.862Z,16.8
2023-02-16T11:24:07.799Z,16.9
2023-02-16T11:29:07.845Z,16.7
2023-02-16T11:34:07.797Z,16.2
2023-02-16T11:39:07.728Z,15.6
2023-02-16T11:44:07.756Z,15.1
2023-02-16T11:49:07.693Z,14.8
2023-02-16T11:54:07.663Z,14.4
2023-02-16T11:59:07.640Z,14
2023-02-16T12:04:07.624Z,13.8
2023-02-16T12:09:07.612Z,14.2
2023-02-16T12:14:07.573Z,15.1
2023-02-16T12:19:07.584Z,15.5
2023-02-16T12:24:07.618Z,15.1
2023-02-16T12:29:07.550Z,14.8
2023-02-16T12:34:07.496Z,14.7
2023-02-16T12:39:07.481Z,14.7
2023-02-16T12:44:07.508Z,14.4
2023-02-16T12:54:07.402Z,14.4
2023-02-16T12:59:07.421Z,14.9
2023-02-16T13:04:07.403Z,15.2
2023-02-16T13:09:07.447Z,15.4
2023-02-16T13:14:07.336Z,15.1
2023-02-16T13:19:07.471Z,14.7
2023-02-16T13:24:07.346Z,14.6
2023-02-16T13:29:07.340Z,14.4
2023-02-16T13:34:07.408Z,14.2
2023-02-16T13:39:07.309Z,14.1
2023-02-16T13:44:07.395Z,14.1
2023-02-16T13:49:07.375Z,14.1
2023-02-16T13:54:07.315Z,14.1
2023-02-16T13:59:07.322Z,14.1
2023-02-16T14:04:07.246Z,14.1
2023-02-16T14:09:07.279Z,14
2023-02-16T14:14:07.279Z,13.9
2023-02-16T14:19:07.270Z,13.9
2023-02-16T14:24:07.051Z,13.8
2023-02-16T14:29:07.018Z,13.7
2023-02-16T14:34:07.002Z,13.6
2023-02-16T14:39:06.984Z,13.5
2023-02-16T14:44:06.961Z,13.4
2023-02-16T14:49:06.990Z,13.3
2023-02-16T14:54:07.017Z,13.2
2023-02-16T14:59:06.952Z,13.2
2023-02-16T15:04:06.873Z,13.2
2023-02-16T15:09:06.869Z,13.1
2023-02-16T15:14:06.834Z,13
2023-02-16T15:19:06.818Z,12.9
2023-02-16T15:24:06.850Z,12.9
2023-02-16T15:29:06.863Z,12.7
2023-02-16T15:34:06.863Z,12.7
2023-02-16T15:39:06.836Z,12.6
2023-02-16T15:44:06.798Z,12.6
2023-02-16T15:49:06.818Z,12.5
2023-02-16T15:54:06.799Z,12.4
2023-02-16T15:59:06.737Z,12.4
2023-02-16T16:04:06.768Z,12.3
2023-02-16T16:09:06.761Z,12.2
2023-02-16T16:14:06.688Z,12.3
2023-02-16T16:19:06.662Z,12.3
2023-02-16T16:24:06.656Z,12.2
2023-02-16T16:29:06.675Z,12
2023-02-16T16:34:06.627Z,11.9
2023-02-16T16:39:06.513Z,11.8
2023-02-16T16:44:06.474Z,11.8
2023-02-16T16:49:06.465Z,11.8
2023-02-16T16:54:06.552Z,11.7
2023-02-16T16:59:06.524Z,11.5
2023-02-16T17:04:06.466Z,11.2
2023-02-16T17:09:06.477Z,10.9
2023-02-16T17:14:06.367Z,10.7
2023-02-16T17:19:06.322Z,10.5
2023-02-16T17:24:06.307Z,10.4
2023-02-16T17:29:06.331Z,10.3
2023-02-16T17:34:06.380Z,10.3
2023-02-16T17:39:06.248Z,10.2
2023-02-16T17:44:06.303Z,10.2
2023-02-16T17:49:06.308Z,10.1
2023-02-16T17:54:06.194Z,10
2023-02-16T17:59:06.171Z,9.9
2023-02-16T18:04:06.198Z,9.8
2023-02-16T18:09:06.139Z,9.8
2023-02-16T18:14:06.235Z,9.8
2023-02-16T18:19:06.173Z,9.6
2023-02-16T18:24:06.090Z,9.5
2023-02-16T18:29:06.161Z,9.6
2023-02-16T18:34:06.103Z,9.4
2023-02-16T18:39:06.018Z,9.5
2023-02-16T18:44:05.996Z,9.5
2023-02-16T18:49:06.157Z,9.5
2023-02-16T18:54:05.981Z,9.5
2023-02-16T18:59:05.959Z,9.5
2023-02-16T19:04:06.011Z,9.5
2023-02-16T19:09:05.929Z,9.5
2023-02-16T19:14:05.897Z,9.5
2023-02-16T19:19:05.898Z,9.5
2023-02-16T19:24:05.859Z,9.5
2023-02-16T19:29:05.977Z,9.6
2023-02-16T19:34:05.862Z,9.6
2023-02-16T19:39:05.879Z,9.6
2023-02-16T19:44:05.759Z,9.6
2023-02-16T19:49:05.756Z,9.6
2023-02-16T19:54:05.726Z,9.6
2023-02-16T19:59:05.717Z,9.6
2023-02-16T20:04:05.753Z,9.5
2023-02-16T20:09:05.819Z,9.5
2023-02-16T20:14:05.692Z,9.3
2023-02-16T20:19:05.682Z,9.3
2023-02-16T20:24:05.679Z,9.1
2023-02-16T20:29:05.701Z,9.1
2023-02-16T20:34:05.661Z,9
2023-02-16T20:39:05.549Z,9
2023-02-16T20:44:05.591Z,9
2023-02-16T20:49:05.670Z,9
2023-02-16T20:54:05.761Z,9
2023-02-16T20:59:05.631Z,9
2023-02-16T21:04:05.453Z,9.1
2023-02-16T21:09:05.575Z,9.1
2023-02-16T21:14:05.571Z,9.2
2023-02-16T21:19:05.503Z,9.3
2023-02-16T21:24:05.435Z,9.3
2023-02-16T21:29:05.353Z,9.4
2023-02-16T21:34:05.540Z,9.4
2023-02-16T21:39:05.429Z,9.5
2023-02-16T21:44:05.323Z,9.6
2023-02-16T21:49:05.281Z,9.7
2023-02-16T21:54:05.253Z,9.7
2023-02-16T21:59:05.238Z,9.7
2023-02-16T22:04:05.333Z,9.6
2023-02-16T22:09:05.291Z,9.5
2023-02-16T22:14:05.166Z,9.5
2023-02-16T22:19:05.156Z,9.6
2023-02-16T22:24:05.252Z,9.7
2023-02-16T22:29:05.170Z,9.7
2023-02-16T22:34:05.108Z,9.7
2023-02-16T22:39:05.078Z,9.7
2023-02-16T22:44:05.066Z,9.7
2023-02-16T22:49:05.041Z,9.7
2023-02-16T22:54:05.095Z,9.8
2023-02-16T22:59:05.210Z,9.8
2023-02-16T23:04:05.089Z,9.7
2023-02-16T23:09:05.037Z,9.7
2023-02-16T23:14:04.973Z,9.6
2023-02-16T23:19:04.930Z,9.6
2023-02-16T23:24:04.951Z,9.7
2023-02-16T23:29:04.884Z,9.7
2023-02-16T23:34:04.864Z,9.7
2023-02-16T23:39:04.850Z,9.7
2023-02-16T23:44:04.828Z,9.7
2023-02-16T23:49:04.797Z,9.5
2023-02-16T23:54:04.786Z,9.5
2023-02-16T23:59:04.803Z,9.5
